createdAt,value
2018-08-19T00:01:31.499Z,16.86
2018-08-19T00:03:59.834Z,16.83
2018-08-19T00:06:28.105Z,16.83
2018-08-19T00:09:00.859Z,16.81
2018-08-19T00:11:29.131Z,16.79
2018-08-19T00:13:57.606Z,16.77
2018-08-19T00:16:25.890Z,16.77
2018-08-19T00:18:54.222Z,16.78
2018-08-19T00:21:22.494Z,16.73
2018-08-19T00:23:50.711Z,16.69
2018-08-19T00:26:18.930Z,16.70
2018-08-19T00:28:47.185Z,16.66
2018-08-19T00:31:15.540Z,16.62
2018-08-19T00:33:43.751Z,16.62
2018-08-19T00:36:24.885Z,16.61
2018-08-19T00:38:53.749Z,16.65
2018-08-19T00:41:21.939Z,16.62
2018-08-19T00:43:50.370Z,16.65
2018-08-19T00:46:21.466Z,16.55
2018-08-19T00:48:49.703Z,16.50
2018-08-19T00:51:17.966Z,16.45
2018-08-19T00:53:46.340Z,16.44
2018-08-19T00:56:14.602Z,16.57
2018-08-19T00:58:42.816Z,16.54
2018-08-19T01:01:21.022Z,16.44
2018-08-19T01:03:55.237Z,16.38
2018-08-19T01:06:23.643Z,16.35
2018-08-19T01:08:51.809Z,16.36
2018-08-19T01:11:26.968Z,16.34
2018-08-19T01:13:55.273Z,16.34
2018-08-19T01:16:24.282Z,16.31
2018-08-19T01:19:01.925Z,16.29
2018-08-19T01:21:31.520Z,16.28
2018-08-19T01:24:00.926Z,16.26
2018-08-19T01:26:34.346Z,16.25
2018-08-19T01:29:02.642Z,16.27
2018-08-19T01:31:30.973Z,16.26
2018-08-19T01:33:59.343Z,16.26
2018-08-19T01:36:29.125Z,16.29
2018-08-19T01:38:57.425Z,16.31
2018-08-19T01:41:25.753Z,16.32
2018-08-19T01:44:05.175Z,16.32
2018-08-19T01:46:37.730Z,16.31
2018-08-19T01:49:07.962Z,16.33
2018-08-19T01:51:37.854Z,16.32
2018-08-19T01:54:10.668Z,16.31
2018-08-19T01:56:39.430Z,16.29
2018-08-19T01:59:07.713Z,16.26
2018-08-19T02:01:52.403Z,16.26
2018-08-19T02:04:21.222Z,16.23
2018-08-19T02:06:49.659Z,16.21
2018-08-19T02:09:19.038Z,16.21
2018-08-19T02:11:51.527Z,16.19
2018-08-19T02:14:20.542Z,16.13
2018-08-19T02:16:49.569Z,16.11
2018-08-19T02:19:17.985Z,16.09
2018-08-19T02:21:47.352Z,16.06
2018-08-19T02:24:16.097Z,16.07
2018-08-19T02:26:44.474Z,16.05
2018-08-19T02:29:30.449Z,16.03
2018-08-19T02:31:59.749Z,16.01
2018-08-19T02:34:32.080Z,16.00
2018-08-19T02:37:05.679Z,15.93
2018-08-19T02:39:35.973Z,15.88
2018-08-19T02:42:04.515Z,15.88
2018-08-19T02:44:32.860Z,15.84
2018-08-19T02:47:01.236Z,15.94
2018-08-19T02:49:29.417Z,15.89
2018-08-19T02:51:57.809Z,15.81
2018-08-19T02:54:26.393Z,15.74
2018-08-19T02:56:54.717Z,15.68
2018-08-19T02:59:23.004Z,15.65
2018-08-19T03:01:51.332Z,15.60
2018-08-19T03:04:19.548Z,15.63
2018-08-19T03:06:47.841Z,15.54
2018-08-19T03:09:16.222Z,15.53
2018-08-19T03:11:44.568Z,15.46
2018-08-19T03:14:12.925Z,15.42
2018-08-19T03:16:41.299Z,15.39
2018-08-19T03:19:09.669Z,15.41
2018-08-19T03:21:37.932Z,15.37
2018-08-19T03:24:06.257Z,15.34
2018-08-19T03:26:34.539Z,15.33
2018-08-19T03:29:07.476Z,15.35
2018-08-19T03:31:35.812Z,15.42
2018-08-19T03:34:04.095Z,15.36
2018-08-19T03:36:32.363Z,15.33
2018-08-19T03:39:14.565Z,15.35
2018-08-19T03:41:42.968Z,15.37
2018-08-19T03:44:11.309Z,15.41
2018-08-19T03:46:39.675Z,15.57
2018-08-19T03:49:07.924Z,15.60
2018-08-19T03:51:36.144Z,15.73
2018-08-19T03:54:04.357Z,15.62
2018-08-19T03:56:32.549Z,15.63
2018-08-19T03:59:05.539Z,15.65
2018-08-19T04:01:41.628Z,15.69
2018-08-19T04:10:58.152Z,17.51
2018-08-19T04:13:27.969Z,17.34
2018-08-19T04:15:57.576Z,18.03
2018-08-19T04:18:31.263Z,19.19
2018-08-19T04:21:01.805Z,20.20
2018-08-19T04:23:31.017Z,20.97
2018-08-19T04:25:59.728Z,21.52
2018-08-19T04:28:28.093Z,21.66
2018-08-19T04:30:57.218Z,22.61
2018-08-19T04:33:31.379Z,22.84
2018-08-19T04:35:59.577Z,22.97
2018-08-19T04:38:28.645Z,23.54
2018-08-19T04:40:58.539Z,23.58
2018-08-19T04:43:28.077Z,23.35
2018-08-19T04:45:57.002Z,23.35
2018-08-19T04:48:26.631Z,22.99
2018-08-19T04:50:56.171Z,22.51
2018-08-19T04:53:24.351Z,22.38
2018-08-19T04:55:53.348Z,22.58
2018-08-19T04:58:21.750Z,21.94
2018-08-19T05:00:49.922Z,20.89
2018-08-19T05:03:18.527Z,20.19
2018-08-19T05:05:46.957Z,19.93
2018-08-19T05:08:15.424Z,19.81
2018-08-19T05:10:43.992Z,19.56
2018-08-19T05:13:13.327Z,19.58
2018-08-19T05:15:41.953Z,19.62
2018-08-19T05:18:10.677Z,19.29
2018-08-19T05:20:39.595Z,19.92
2018-08-19T05:23:08.431Z,21.77
2018-08-19T05:25:43.939Z,23.06
2018-08-19T05:28:12.116Z,23.61
2018-08-19T05:30:40.251Z,23.91
2018-08-19T05:33:08.612Z,24.05
2018-08-19T05:35:36.812Z,24.53
2018-08-19T05:38:05.205Z,24.30
2018-08-19T05:40:33.787Z,23.98
2018-08-19T05:43:02.587Z,24.39
2018-08-19T05:45:31.515Z,23.36
2018-08-19T05:48:09.376Z,22.39
2018-08-19T05:50:37.740Z,22.25
2018-08-19T05:53:06.210Z,22.44
2018-08-19T05:55:34.601Z,22.85
2018-08-19T05:58:02.872Z,24.36
2018-08-19T06:00:31.562Z,25.03
2018-08-19T06:03:00.957Z,25.32
2018-08-19T06:05:30.069Z,25.83
2018-08-19T06:08:07.749Z,25.81
2018-08-19T06:10:35.925Z,25.81
2018-08-19T06:13:04.116Z,24.67
2018-08-19T06:15:32.594Z,23.71
2018-08-19T06:18:01.267Z,24.20
2018-08-19T06:20:30.829Z,25.17
2018-08-19T06:22:59.374Z,25.69
2018-08-19T06:25:27.789Z,26.43
2018-08-19T06:27:57.398Z,26.39
2018-08-19T06:30:26.171Z,26.85
2018-08-19T06:32:55.488Z,26.68
2018-08-19T06:35:24.078Z,26.74
2018-08-19T06:37:52.551Z,26.83
2018-08-19T06:40:22.308Z,27.09
2018-08-19T06:42:50.682Z,26.58
2018-08-19T06:45:19.131Z,26.88
2018-08-19T06:47:47.653Z,27.30
2018-08-19T06:50:22.966Z,27.48
2018-08-19T06:52:51.563Z,27.20
2018-08-19T06:55:20.343Z,27.72
2018-08-19T06:57:48.652Z,27.88
2018-08-19T07:00:24.755Z,27.74
2018-08-19T07:02:53.310Z,27.57
2018-08-19T07:05:21.853Z,27.19
2018-08-19T07:07:50.540Z,27.81
2018-08-19T07:10:41.188Z,27.52
2018-08-19T07:13:12.940Z,27.66
2018-08-19T07:15:42.412Z,28.19
2018-08-19T07:18:14.959Z,28.18
2018-08-19T07:20:44.215Z,27.94
2018-08-19T07:23:13.215Z,28.19
2018-08-19T07:25:43.061Z,28.30
2018-08-19T07:28:12.569Z,27.96
2018-08-19T07:30:41.833Z,27.94
2018-08-19T07:33:10.781Z,28.32
2018-08-19T07:35:39.264Z,28.43
2018-08-19T07:38:08.044Z,28.49
2018-08-19T07:40:36.471Z,29.11
2018-08-19T07:43:05.584Z,29.42
2018-08-19T07:45:34.258Z,29.80
2018-08-19T07:48:02.894Z,30.01
2018-08-19T07:50:31.209Z,29.73
2018-08-19T07:52:59.694Z,29.53
2018-08-19T07:55:28.107Z,29.23
2018-08-19T07:57:57.031Z,29.13
2018-08-19T08:00:31.037Z,29.02
2018-08-19T08:02:59.627Z,29.39
2018-08-19T08:05:32.975Z,29.42
2018-08-19T08:08:01.510Z,29.11
2018-08-19T08:10:30.226Z,28.89
2018-08-19T08:13:04.500Z,28.76
2018-08-19T08:15:46.751Z,28.57
2018-08-19T08:18:16.013Z,29.18
2018-08-19T08:20:44.614Z,29.56
2018-08-19T08:23:21.557Z,29.61
2018-08-19T08:25:49.895Z,29.94
2018-08-19T08:28:18.500Z,30.21
2018-08-19T08:30:46.800Z,30.27
2018-08-19T08:33:15.343Z,30.06
2018-08-19T08:36:02.400Z,29.81
2018-08-19T08:38:30.733Z,29.67
2018-08-19T08:41:02.728Z,29.78
2018-08-19T08:43:31.695Z,29.54
2018-08-19T08:46:00.354Z,29.92
2018-08-19T08:48:29.140Z,30.55
2018-08-19T08:50:57.812Z,30.87
2018-08-19T08:53:28.711Z,30.85
2018-08-19T08:55:57.324Z,30.64
2018-08-19T08:58:26.352Z,31.17
2018-08-19T09:00:56.764Z,31.26
2018-08-19T09:03:27.469Z,30.51
2018-08-19T09:06:01.949Z,30.44
2018-08-19T09:08:30.879Z,30.43
2018-08-19T09:11:00.723Z,31.22
2018-08-19T09:13:29.286Z,31.38
2018-08-19T09:15:57.734Z,31.25
2018-08-19T09:18:26.284Z,31.52
2018-08-19T09:20:54.712Z,31.43
2018-08-19T09:23:23.216Z,31.45
2018-08-19T09:25:51.634Z,31.44
2018-08-19T09:28:19.910Z,31.39
2018-08-19T09:30:48.045Z,31.36
2018-08-19T09:33:16.239Z,31.83
2018-08-19T09:35:44.860Z,31.51
2018-08-19T09:38:19.877Z,31.76
2018-08-19T09:40:48.386Z,31.42
2018-08-19T09:43:17.535Z,31.22
2018-08-19T09:45:47.287Z,31.11
2018-08-19T09:48:16.161Z,30.81
2018-08-19T09:50:45.992Z,30.80
2018-08-19T09:53:14.587Z,31.10
2018-08-19T09:55:47.472Z,31.28
2018-08-19T09:58:20.376Z,31.12
2018-08-19T10:00:54.257Z,31.39
2018-08-19T10:03:24.717Z,31.42
2018-08-19T10:05:53.114Z,31.03
2018-08-19T10:08:23.792Z,31.27
2018-08-19T10:10:52.798Z,31.75
2018-08-19T10:13:21.873Z,31.78
2018-08-19T10:15:52.688Z,31.70
2018-08-19T10:18:22.295Z,30.78
2018-08-19T10:20:51.411Z,31.24
2018-08-19T10:23:23.333Z,31.54
2018-08-19T10:25:53.591Z,31.16
2018-08-19T10:28:22.400Z,30.66
2018-08-19T10:30:55.398Z,30.89
2018-08-19T10:33:24.053Z,31.17
2018-08-19T10:35:52.866Z,31.58
2018-08-19T10:38:21.482Z,31.47
2018-08-19T10:40:58.281Z,31.51
2018-08-19T10:43:29.051Z,31.00
2018-08-19T10:45:58.360Z,30.86
2018-08-19T10:48:27.548Z,31.67
2018-08-19T10:50:58.714Z,31.86
2018-08-19T10:53:28.595Z,31.27
2018-08-19T10:56:02.094Z,31.24
2018-08-19T10:58:30.747Z,31.84
2018-08-19T11:00:59.216Z,31.08
2018-08-19T11:03:28.458Z,30.79
2018-08-19T11:05:57.014Z,30.86
2018-08-19T11:08:25.341Z,31.19
2018-08-19T11:10:53.711Z,31.04
2018-08-19T11:13:25.193Z,31.25
2018-08-19T11:15:58.396Z,31.40
2018-08-19T11:18:40.587Z,31.37
2018-08-19T11:21:42.138Z,31.17
2018-08-19T11:24:27.663Z,32.14
2018-08-19T11:27:02.076Z,32.49
2018-08-19T11:29:34.825Z,31.31
2018-08-19T11:32:04.015Z,31.00
2018-08-19T11:34:32.944Z,31.12
2018-08-19T11:37:01.860Z,30.89
2018-08-19T11:39:35.857Z,30.96
2018-08-19T11:42:04.691Z,31.03
2018-08-19T11:44:36.498Z,31.16
2018-08-19T11:47:05.097Z,31.38
2018-08-19T11:49:33.776Z,30.96
2018-08-19T11:52:03.456Z,31.32
2018-08-19T11:54:33.124Z,31.54
2018-08-19T11:57:07.387Z,31.06
2018-08-19T11:59:37.935Z,31.26
2018-08-19T12:02:08.272Z,31.31
2018-08-19T12:04:38.580Z,31.61
2018-08-19T12:07:07.639Z,31.31
2018-08-19T12:09:36.220Z,30.38
2018-08-19T12:12:05.926Z,30.33
2018-08-19T12:14:35.779Z,30.38
2018-08-19T12:17:09.035Z,30.30
2018-08-19T12:19:40.177Z,30.25
2018-08-19T12:22:11.166Z,30.06
2018-08-19T12:24:44.627Z,30.33
2018-08-19T12:27:17.823Z,30.47
2018-08-19T12:29:47.488Z,30.40
2018-08-19T12:32:25.313Z,30.02
2018-08-19T12:35:01.818Z,30.01
2018-08-19T12:37:32.001Z,30.30
2018-08-19T12:40:00.894Z,30.10
2018-08-19T12:42:30.752Z,30.62
2018-08-19T12:45:07.169Z,30.97
2018-08-19T12:47:36.287Z,31.02
2018-08-19T12:50:12.258Z,30.79
2018-08-19T12:52:41.236Z,31.09
2018-08-19T12:55:11.818Z,30.80
2018-08-19T12:57:41.615Z,30.52
2018-08-19T13:00:24.396Z,30.40
2018-08-19T13:02:53.211Z,30.29
2018-08-19T13:05:22.890Z,29.89
2018-08-19T13:07:52.296Z,29.78
2018-08-19T13:10:21.366Z,29.80
2018-08-19T13:12:58.328Z,29.38
2018-08-19T13:15:29.718Z,29.04
2018-08-19T13:17:58.665Z,28.87
2018-08-19T13:20:27.384Z,28.76
2018-08-19T13:23:00.126Z,28.81
2018-08-19T13:25:29.605Z,28.75
2018-08-19T13:27:59.019Z,28.69
2018-08-19T13:30:28.485Z,28.71
2018-08-19T13:32:58.747Z,28.87
2018-08-19T13:35:27.706Z,28.99
2018-08-19T13:37:56.557Z,29.15
2018-08-19T13:40:25.356Z,29.55
2018-08-19T13:42:55.879Z,29.82
2018-08-19T13:45:28.079Z,30.05
2018-08-19T13:47:56.768Z,30.26
2018-08-19T13:50:25.190Z,30.04
2018-08-19T13:52:54.355Z,30.05
2018-08-19T13:55:22.916Z,30.23
2018-08-19T13:57:52.011Z,30.33
2018-08-19T14:00:22.154Z,30.29
2018-08-19T14:02:51.112Z,30.09
2018-08-19T14:05:19.571Z,30.00
2018-08-19T14:07:49.383Z,29.78
2018-08-19T14:10:17.783Z,29.32
2018-08-19T14:12:46.571Z,28.80
2018-08-19T14:15:15.064Z,28.68
2018-08-19T14:17:45.688Z,28.53
2018-08-19T14:20:15.081Z,28.37
2018-08-19T14:22:43.874Z,28.62
2018-08-19T14:25:14.672Z,28.46
2018-08-19T14:27:43.395Z,28.21
2018-08-19T14:30:12.493Z,27.99
2018-08-19T14:32:50.237Z,28.00
2018-08-19T14:35:24.988Z,28.31
2018-08-19T14:37:54.271Z,28.57
2018-08-19T14:40:28.689Z,28.76
2018-08-19T14:42:57.756Z,28.74
2018-08-19T14:45:26.685Z,28.69
2018-08-19T14:47:55.045Z,28.83
2018-08-19T14:50:23.589Z,28.73
2018-08-19T14:52:52.462Z,28.50
2018-08-19T14:55:21.205Z,28.36
2018-08-19T14:57:49.624Z,28.42
2018-08-19T15:00:18.311Z,28.29
2018-08-19T15:02:47.190Z,28.27
2018-08-19T15:05:18.144Z,28.28
2018-08-19T15:07:47.034Z,28.26
2018-08-19T15:10:25.155Z,28.14
2018-08-19T15:12:53.722Z,28.08
2018-08-19T15:15:22.026Z,27.98
2018-08-19T15:17:55.545Z,27.83
2018-08-19T15:20:29.547Z,27.86
2018-08-19T15:23:18.199Z,27.88
2018-08-19T15:25:46.517Z,27.76
2018-08-19T15:28:14.865Z,27.72
2018-08-19T15:30:43.210Z,27.49
2018-08-19T15:33:13.881Z,27.40
2018-08-19T15:35:44.924Z,27.25
2018-08-19T15:38:16.563Z,27.08
2018-08-19T15:40:48.256Z,27.02
2018-08-19T15:43:17.217Z,26.77
2018-08-19T15:45:45.763Z,26.72
2018-08-19T15:48:13.898Z,26.54
2018-08-19T15:50:42.190Z,26.56
2018-08-19T15:53:10.517Z,26.48
2018-08-19T15:55:39.224Z,26.39
2018-08-19T15:58:07.389Z,26.29
2018-08-19T16:00:38.242Z,26.18
2018-08-19T16:03:06.971Z,26.12
2018-08-19T16:05:35.127Z,26.23
2018-08-19T16:08:05.175Z,26.29
2018-08-19T16:10:34.615Z,26.39
2018-08-19T16:13:07.495Z,26.41
2018-08-19T16:15:37.084Z,26.30
2018-08-19T16:18:06.375Z,26.26
2018-08-19T16:20:34.813Z,26.28
2018-08-19T16:23:02.967Z,26.12
2018-08-19T16:25:31.100Z,25.93
2018-08-19T16:27:59.272Z,26.02
2018-08-19T16:30:27.469Z,26.06
2018-08-19T16:32:55.798Z,26.27
2018-08-19T16:35:23.893Z,26.16
2018-08-19T16:37:52.144Z,26.35
2018-08-19T16:40:20.574Z,26.41
2018-08-19T16:42:48.927Z,26.29
2018-08-19T16:45:17.187Z,26.17
2018-08-19T16:47:45.447Z,26.05
2018-08-19T16:50:13.825Z,25.97
2018-08-19T16:52:42.367Z,25.83
2018-08-19T16:55:10.710Z,25.71
2018-08-19T16:57:39.012Z,25.68
2018-08-19T17:00:08.473Z,25.57
2018-08-19T17:02:36.790Z,25.49
2018-08-19T17:05:15.086Z,25.38
2018-08-19T17:07:43.310Z,25.22
2018-08-19T17:10:11.743Z,25.27
2018-08-19T17:12:40.107Z,25.02
2018-08-19T17:15:08.791Z,24.57
2018-08-19T17:17:37.204Z,24.50
2018-08-19T17:20:05.621Z,24.60
2018-08-19T17:22:33.877Z,24.45
2018-08-19T17:25:02.442Z,24.10
2018-08-19T17:27:30.687Z,24.07
2018-08-19T17:29:59.052Z,23.87
2018-08-19T17:32:27.290Z,24.22
2018-08-19T17:34:55.541Z,23.97
2018-08-19T17:37:23.909Z,23.68
2018-08-19T17:39:52.533Z,23.66
2018-08-19T17:42:22.618Z,23.71
2018-08-19T17:44:50.931Z,23.63
2018-08-19T17:47:19.295Z,23.80
2018-08-19T17:49:48.319Z,23.56
2018-08-19T17:52:16.970Z,23.25
2018-08-19T17:54:46.943Z,22.90
2018-08-19T17:57:16.120Z,22.69
2018-08-19T17:59:44.547Z,22.45
2018-08-19T18:02:13.145Z,22.38
2018-08-19T18:04:46.806Z,22.33
2018-08-19T18:07:20.561Z,22.14
2018-08-19T18:09:57.108Z,21.94
2018-08-19T18:12:26.075Z,21.86
2018-08-19T18:14:54.748Z,21.83
2018-08-19T18:17:23.036Z,21.79
2018-08-19T18:19:51.411Z,21.63
2018-08-19T18:22:20.764Z,21.58
2018-08-19T18:24:56.602Z,21.51
2018-08-19T18:27:25.172Z,21.40
2018-08-19T18:29:53.552Z,21.28
2018-08-19T18:32:23.918Z,21.27
2018-08-19T18:34:52.332Z,21.23
2018-08-19T18:37:20.794Z,21.04
2018-08-19T18:39:49.201Z,21.06
2018-08-19T18:42:33.418Z,20.93
2018-08-19T18:45:07.067Z,20.81
2018-08-19T18:47:35.495Z,20.86
2018-08-19T18:50:10.367Z,20.70
2018-08-19T18:52:39.616Z,20.65
2018-08-19T18:55:10.852Z,20.54
2018-08-19T18:57:58.116Z,20.58
2018-08-19T19:00:27.989Z,20.57
2018-08-19T19:02:58.622Z,20.53
2018-08-19T19:05:40.609Z,20.44
2018-08-19T19:08:11.138Z,20.44
2018-08-19T19:10:40.265Z,20.35
2018-08-19T19:13:09.017Z,20.20
2018-08-19T19:15:41.061Z,20.15
2018-08-19T19:18:14.103Z,20.05
2018-08-19T19:20:50.594Z,20.03
2018-08-19T19:23:25.358Z,20.50
2018-08-19T19:25:53.887Z,20.40
2018-08-19T19:28:30.486Z,20.27
2018-08-19T19:31:11.798Z,20.08
2018-08-19T19:33:40.869Z,19.96
2018-08-19T19:36:14.801Z,20.03
2018-08-19T19:38:48.510Z,20.02
2018-08-19T19:41:20.397Z,19.87
2018-08-19T19:43:55.940Z,19.86
2018-08-19T19:46:25.196Z,20.03
2018-08-19T19:48:53.559Z,19.96
2018-08-19T19:51:21.831Z,19.85
2018-08-19T19:53:50.162Z,19.79
2018-08-19T19:56:19.399Z,19.74
2018-08-19T19:58:52.232Z,19.69
2018-08-19T20:01:20.937Z,19.75
2018-08-19T20:03:52.233Z,19.73
2018-08-19T20:06:20.477Z,19.69
2018-08-19T20:08:49.386Z,19.72
2018-08-19T20:11:23.080Z,19.60
2018-08-19T20:13:52.080Z,19.56
2018-08-19T20:16:20.465Z,19.49
2018-08-19T20:18:48.620Z,19.44
2018-08-19T20:21:26.936Z,19.35
2018-08-19T20:23:56.601Z,19.27
2018-08-19T20:26:25.781Z,19.31
2018-08-19T20:28:58.208Z,19.30
2018-08-19T20:31:26.598Z,19.25
2018-08-19T20:33:54.890Z,19.20
2018-08-19T20:36:23.243Z,19.15
2018-08-19T20:38:51.413Z,19.17
2018-08-19T20:41:19.752Z,19.28
2018-08-19T20:43:48.099Z,19.23
2018-08-19T20:46:16.212Z,19.24
2018-08-19T20:48:45.657Z,19.03
2018-08-19T20:51:13.929Z,18.96
2018-08-19T20:53:42.104Z,18.84
2018-08-19T20:56:10.241Z,18.84
2018-08-19T20:58:38.664Z,18.90
2018-08-19T21:01:15.965Z,18.86
2018-08-19T21:03:44.319Z,18.79
2018-08-19T21:06:12.457Z,18.75
2018-08-19T21:08:40.801Z,18.71
2018-08-19T21:11:09.006Z,18.72
2018-08-19T21:13:37.199Z,18.70
2018-08-19T21:16:05.597Z,18.81
2018-08-19T21:18:33.818Z,18.65
2018-08-19T21:21:02.085Z,18.62
2018-08-19T21:23:30.278Z,18.56
2018-08-19T21:26:00.428Z,18.56
2018-08-19T21:28:28.571Z,18.51
2018-08-19T21:31:03.618Z,18.47
2018-08-19T21:33:32.700Z,18.48
2018-08-19T21:36:00.826Z,18.46
2018-08-19T21:38:29.000Z,18.43
2018-08-19T21:40:57.815Z,18.46
2018-08-19T21:43:26.976Z,18.38
2018-08-19T21:45:55.459Z,18.36
2018-08-19T21:48:23.570Z,18.32
2018-08-19T21:50:51.749Z,18.31
2018-08-19T21:53:20.210Z,18.21
2018-08-19T21:55:50.566Z,18.07
2018-08-19T21:58:18.954Z,18.02
2018-08-19T22:00:53.608Z,18.00
2018-08-19T22:03:27.276Z,18.09
2018-08-19T22:05:55.500Z,18.10
2018-08-19T22:08:24.169Z,18.17
2018-08-19T22:10:52.575Z,18.18
2018-08-19T22:13:20.716Z,18.08
2018-08-19T22:15:48.965Z,18.05
2018-08-19T22:18:20.281Z,18.08
2018-08-19T22:21:03.654Z,18.03
2018-08-19T22:23:37.421Z,18.23
2018-08-19T22:26:05.847Z,18.50
2018-08-19T22:28:34.269Z,18.57
2018-08-19T22:31:13.906Z,18.36
2018-08-19T22:33:42.047Z,18.41
2018-08-19T22:36:10.276Z,18.35
2018-08-19T22:38:38.546Z,18.23
2018-08-19T22:41:06.864Z,18.07
2018-08-19T22:43:34.977Z,18.00
2018-08-19T22:46:03.173Z,18.06
2018-08-19T22:48:42.596Z,17.93
2018-08-19T22:51:11.817Z,17.83
2018-08-19T22:53:40.007Z,18.02
2018-08-19T22:56:08.110Z,17.82
2018-08-19T22:58:36.681Z,17.62
2018-08-19T23:01:05.338Z,17.47
2018-08-19T23:03:33.547Z,17.41
2018-08-19T23:06:01.655Z,17.33
2018-08-19T23:08:30.945Z,17.29
2018-08-19T23:11:00.796Z,17.26
2018-08-19T23:13:40.079Z,17.23
2018-08-19T23:16:10.048Z,17.28
2018-08-19T23:18:38.940Z,17.25
2018-08-19T23:21:07.311Z,17.24
2018-08-19T23:23:35.433Z,17.23
2018-08-19T23:26:03.893Z,17.20
2018-08-19T23:28:32.029Z,17.34
2018-08-19T23:31:00.129Z,17.37
2018-08-19T23:33:28.268Z,17.10
2018-08-19T23:35:56.472Z,17.03
2018-08-19T23:38:24.761Z,16.93
2018-08-19T23:40:53.059Z,16.83
2018-08-19T23:43:21.382Z,16.68
2018-08-19T23:45:49.471Z,16.64
2018-08-19T23:48:17.675Z,16.62
2018-08-19T23:50:45.871Z,16.62
2018-08-19T23:53:14.116Z,16.58
2018-08-19T23:55:45.186Z,16.50
2018-08-19T23:58:13.998Z,16.44
